Time;durP1;ratioP1;P1;durP2;ratioP2;P2;SDS_P1;SDS_P2;PMS_P1;PMS_P2;Temp;Humidity;BMP_temperature;BMP_pressure;BME280_temperature;BME280_humidity;BME280_pressure;Samples;Min_cycle;Max_cycle;Signal;HPM_P1;HPM_P2
2023/06/17 00:00:24;;;;;;;5.07;4.68;;;;;;;15.52;100.00;93995.53;5026694;28;20088;-76
2023/06/17 00:02:51;;;;;;;4.70;4.30;;;;;;;15.52;100.00;94014.09;5051092;28;20032;-76
2023/06/17 00:05:17;;;;;;;4.38;3.97;;;;;;;15.53;100.00;94039.59;5051903;28;20484;-76
2023/06/17 00:07:43;;;;;;;4.72;4.43;;;;;;;15.56;100.00;94044.47;5050250;28;20017;-76
2023/06/17 00:10:10;;;;;;;5.20;4.78;;;;;;;15.51;100.00;94028.38;5054478;28;20392;-76
2023/06/17 00:12:36;;;;;;;5.30;4.80;;;;;;;15.51;100.00;94012.47;5054206;28;20025;-75
2023/06/17 00:15:04;;;;;;;5.20;4.72;;;;;;;15.45;100.00;93996.41;5050062;28;20610;-75
2023/06/17 00:17:30;;;;;;;5.30;4.82;;;;;;;15.44;100.00;93978.03;5044357;28;20105;-76
2023/06/17 00:19:57;;;;;;;4.85;4.47;;;;;;;15.37;100.00;93967.50;5051047;28;20293;-76
2023/06/17 00:22:25;;;;;;;4.65;4.32;;;;;;;15.33;100.00;93972.41;5049909;28;20544;-76
2023/06/17 00:24:50;;;;;;;5.05;4.65;;;;;;;15.34;100.00;93986.47;5051513;28;20029;-76
2023/06/17 00:27:16;;;;;;;4.90;4.50;;;;;;;15.34;100.00;93999.72;5054103;28;20029;-76
2023/06/17 00:29:41;;;;;;;5.75;4.55;;;;;;;15.33;100.00;93988.31;5043257;28;20099;-76
2023/06/17 00:32:07;;;;;;;5.15;4.82;;;;;;;15.30;100.00;93982.63;5030238;28;20033;-75
2023/06/17 00:34:32;;;;;;;5.72;5.03;;;;;;;15.31;100.00;93978.94;5058708;28;20039;-76
2023/06/17 00:36:58;;;;;;;6.03;4.60;;;;;;;15.30;100.00;93977.31;5046962;28;20051;-76
2023/06/17 00:39:23;;;;;;;4.85;4.45;;;;;;;15.27;100.00;93962.66;5050122;28;20013;-76
2023/06/17 00:41:49;;;;;;;6.43;5.20;;;;;;;15.26;100.00;93944.31;5038729;28;20107;-76
2023/06/17 00:44:14;;;;;;;5.88;5.22;;;;;;;15.21;100.00;93928.25;5051834;28;20033;-77
2023/06/17 00:46:43;;;;;;;5.43;5.00;;;;;;;15.22;100.00;93932.50;5042762;28;20040;-76
2023/06/17 00:49:10;;;;;;;5.75;5.30;;;;;;;15.16;100.00;93918.28;5052039;28;20025;-77
2023/06/17 00:51:36;;;;;;;5.80;5.30;;;;;;;15.13;100.00;93919.50;5050113;28;20033;-76
2023/06/17 00:54:02;;;;;;;7.45;4.93;;;;;;;15.05;100.00;93901.22;5052623;28;20439;-76
2023/06/17 00:56:29;;;;;;;6.07;5.28;;;;;;;15.03;100.00;93911.22;5065399;28;20013;-76
2023/06/17 00:58:55;;;;;;;8.05;4.97;;;;;;;15.02;100.00;93909.59;5050243;28;20029;-77
2023/06/17 01:01:21;;;;;;;5.75;5.35;;;;;;;15.01;100.00;93907.97;5032140;28;20048;-76
2023/06/17 01:03:49;;;;;;;5.35;4.85;;;;;;;14.99;100.00;93913.47;5041440;28;20123;-76
2023/06/17 01:06:55;;;;;;;7.38;4.53;;;;;;;15.04;100.00;93905.72;5053003;28;20021;-76
2023/06/17 01:09:28;;;;;;;5.50;5.10;;;;;;;14.97;100.00;93901.47;5052169;28;20048;-76
2023/06/17 01:11:57;;;;;;;5.70;4.60;;;;;;;14.93;100.00;93893.13;5047061;28;20025;-76
2023/06/17 01:14:24;;;;;;;9.95;5.20;;;;;;;14.97;100.00;93885.59;5048390;28;20029;-75
2023/06/17 01:16:54;;;;;;;5.47;5.10;;;;;;;14.89;100.00;93891.94;5048787;28;20089;-76
2023/06/17 01:19:23;;;;;;;6.47;5.30;;;;;;;14.75;100.00;93892.00;5053092;28;20119;-76
2023/06/17 01:21:51;;;;;;;5.30;4.90;;;;;;;14.71;100.00;93879.41;5052049;28;20060;-76
2023/06/17 01:24:30;;;;;;;6.13;5.72;;;;;;;14.69;100.00;93866.34;5051897;28;20029;-76
2023/06/17 01:27:02;;;;;;;5.60;5.20;;;;;;;14.66;100.00;93855.34;5053464;28;20032;-76
2023/06/17 01:29:32;;;;;;;5.55;5.05;;;;;;;14.61;100.00;93854.16;5045700;28;20067;-76
2023/06/17 01:31:59;;;;;;;5.43;5.13;;;;;;;14.59;100.00;93869.44;5051437;28;20027;-76
2023/06/17 01:35:08;;;;;;;6.18;5.28;;;;;;;14.60;100.00;93855.19;5053868;28;20366;-76
2023/06/17 01:37:47;;;;;;;5.57;5.03;;;;;;;14.59;100.00;93850.91;5045243;28;20284;-76
2023/06/17 01:40:14;;;;;;;5.70;5.20;;;;;;;14.61;100.00;93850.72;5038404;28;20032;-76
2023/06/17 01:42:44;;;;;;;5.47;4.82;;;;;;;14.44;100.00;93845.06;5049409;28;20024;-76
2023/06/17 01:45:11;;;;;;;5.30;5.00;;;;;;;14.38;100.00;93840.63;5045851;28;20108;-76
2023/06/17 01:47:37;;;;;;;5.88;5.32;;;;;;;14.40;100.00;93841.22;5017699;28;20389;-76
2023/06/17 01:50:05;;;;;;;6.20;5.65;;;;;;;14.42;100.00;93873.59;5050589;28;20026;-76
2023/06/17 01:52:31;;;;;;;5.63;5.20;;;;;;;14.41;100.00;94005.16;5052829;28;20021;-76
2023/06/17 01:54:57;;;;;;;6.82;5.65;;;;;;;14.42;100.00;94006.78;5055146;28;20388;-76
2023/06/17 01:57:23;;;;;;;6.05;5.45;;;;;;;14.39;100.00;93834.31;5040696;28;20029;-76
2023/06/17 01:59:48;;;;;;;5.28;4.88;;;;;;;14.36;100.00;93832.09;5046616;28;20031;-76
2023/06/17 02:02:14;;;;;;;8.80;5.82;;;;;;;14.39;100.00;93834.31;5045876;28;20029;-76
2023/06/17 02:04:39;;;;;;;6.05;5.60;;;;;;;14.33;100.00;93826.19;5052551;28;20432;-76
2023/06/17 02:07:05;;;;;;;6.07;5.68;;;;;;;14.28;100.00;93812.78;5053078;28;20041;-76
2023/06/17 02:09:31;;;;;;;5.80;5.30;;;;;;;14.25;100.00;93799.97;5049437;28;20437;-76
2023/06/17 02:11:57;;;;;;;6.38;5.70;;;;;;;14.21;100.00;93800.63;5050985;28;20025;-76
2023/06/17 02:14:23;;;;;;;5.55;5.07;;;;;;;14.11;100.00;93783.34;5041801;28;20028;-76
2023/06/17 02:16:49;;;;;;;6.72;5.80;;;;;;;14.15;100.00;93804.91;5045564;28;20017;-76
2023/06/17 02:19:15;;;;;;;5.80;5.40;;;;;;;14.18;100.00;93823.84;5045386;28;20052;-76
2023/06/17 02:21:42;;;;;;;6.80;5.57;;;;;;;14.20;100.00;93941.91;5051609;28;20143;-76
2023/06/17 02:24:08;;;;;;;6.18;5.68;;;;;;;14.15;100.00;94119.81;5031303;28;20017;-76
2023/06/17 02:26:34;;;;;;;5.38;5.07;;;;;;;14.10;100.00;95764.03;5044773;28;20108;-76
2023/06/17 02:28:59;;;;;;;5.65;5.07;;;;;;;14.14;100.00;95770.66;5038944;28;20040;-76
2023/06/17 02:31:27;;;;;;;5.68;5.20;;;;;;;14.09;100.00;95769.50;5053512;28;20083;-76
2023/06/17 02:33:52;;;;;;;5.85;5.45;;;;;;;14.01;100.00;95786.19;5061062;28;20029;-76
2023/06/17 02:36:19;;;;;;;5.68;5.25;;;;;;;13.96;100.00;95781.34;5032099;28;20083;-76
2023/06/17 02:38:44;;;;;;;6.38;5.78;;;;;;;13.97;100.00;95788.31;5052595;28;20044;-76
2023/06/17 02:41:10;;;;;;;5.85;5.45;;;;;;;13.98;100.00;95784.66;5046369;28;20025;-76
2023/06/17 02:43:35;;;;;;;6.22;5.72;;;;;;;13.93;100.00;95784.34;5048897;28;20371;-76
2023/06/17 02:46:01;;;;;;;5.80;5.40;;;;;;;13.94;100.00;95774.59;5046081;28;20033;-76
2023/06/17 02:48:26;;;;;;;6.25;5.70;;;;;;;13.92;100.00;95776.53;5052845;28;20021;-76
2023/06/17 02:50:53;;;;;;;6.30;5.70;;;;;;;13.87;100.00;95771.75;5044266;28;20080;-76
2023/06/17 02:53:19;;;;;;;5.93;5.43;;;;;;;13.83;100.00;95778.34;5050417;28;20507;-76
2023/06/17 02:55:45;;;;;;;7.93;6.10;;;;;;;13.84;100.00;95774.72;5058270;28;20024;-76
2023/06/17 02:58:14;;;;;;;5.47;5.07;;;;;;;13.80;100.00;95778.66;5049833;28;20064;-76
2023/06/17 03:00:40;;;;;;;4.97;4.68;;;;;;;13.74;100.00;95791.53;5035541;28;20035;-76
2023/06/17 03:03:06;;;;;;;6.28;5.78;;;;;;;13.79;100.00;95785.78;5071212;28;20032;-77
2023/06/17 03:05:32;;;;;;;6.53;5.85;;;;;;;13.78;100.00;95785.94;5051870;28;20496;-76
2023/06/17 03:07:58;;;;;;;6.05;5.60;;;;;;;13.78;100.00;95785.94;5050903;28;20049;-76
2023/06/17 03:10:26;;;;;;;6.28;5.82;;;;;;;13.78;100.00;95785.94;5038402;28;20029;-76
2023/06/17 03:12:51;;;;;;;6.20;5.47;;;;;;;13.79;100.00;95788.44;5052435;28;20017;-76
2023/06/17 03:15:17;;;;;;;11.73;6.00;;;;;;;13.78;100.00;95791.22;5050655;28;20036;-76
2023/06/17 03:17:43;;;;;;;9.27;6.40;;;;;;;13.74;100.00;95796.81;5045617;28;20018;-76
2023/06/17 03:20:09;;;;;;;6.65;5.78;;;;;;;13.75;100.00;95801.13;5054479;28;20049;-76
2023/06/17 03:22:34;;;;;;;7.18;6.43;;;;;;;13.71;100.00;95793.69;5044172;28;20021;-76
2023/06/17 03:25:00;;;;;;;7.00;5.93;;;;;;;13.68;100.00;95800.13;5040279;28;20024;-76
2023/06/17 03:27:27;;;;;;;6.55;5.78;;;;;;;13.64;100.00;95798.78;5055556;28;20064;-76
2023/06/17 03:29:52;;;;;;;6.78;6.18;;;;;;;13.60;100.00;95805.38;5051762;28;20017;-76
2023/06/17 03:32:18;;;;;;;7.60;6.03;;;;;;;13.60;100.00;95810.69;5063133;28;20935;-76
2023/06/17 03:34:43;;;;;;;13.57;5.78;;;;;;;13.59;100.00;95807.19;5056428;28;20013;-76
2023/06/17 03:37:09;;;;;;;6.20;5.65;;;;;;;13.56;100.00;95809.31;5052898;28;20473;-76
2023/06/17 03:39:35;;;;;;;7.50;5.78;;;;;;;13.50;100.00;95823.16;5060464;28;20083;-76
2023/06/17 03:42:01;;;;;;;6.60;6.00;;;;;;;13.45;100.00;95823.63;5035087;28;20033;-76
2023/06/17 03:44:26;;;;;;;7.53;6.10;;;;;;;13.50;100.00;95817.88;5066528;28;20049;-77
2023/06/17 03:46:51;;;;;;;8.95;6.32;;;;;;;13.49;100.00;95822.34;5037877;28;20025;-76
2023/06/17 03:49:17;;;;;;;6.68;6.07;;;;;;;13.47;100.00;95816.38;5057421;28;20028;-76
2023/06/17 03:51:42;;;;;;;6.10;5.60;;;;;;;13.37;100.00;95820.91;5056703;28;20114;-76
2023/06/17 03:54:07;;;;;;;6.30;5.80;;;;;;;13.43;100.00;95829.09;5058547;28;20056;-76
2023/06/17 03:56:33;;;;;;;7.13;6.63;;;;;;;13.47;100.00;95829.59;5057248;28;20024;-76
2023/06/17 03:58:58;;;;;;;6.85;6.35;;;;;;;13.49;100.00;95834.72;5057474;28;20028;-76
2023/06/17 04:01:24;;;;;;;6.75;6.25;;;;;;;13.50;100.00;95825.81;5055589;28;20025;-76
2023/06/17 04:03:50;;;;;;;6.80;6.22;;;;;;;13.52;100.00;95829.97;5056548;28;20032;-76
2023/06/17 04:06:16;;;;;;;6.90;6.18;;;;;;;13.50;100.00;95834.59;5057460;28;20028;-76
2023/06/17 04:08:43;;;;;;;6.85;6.25;;;;;;;13.39;100.00;95843.59;5054885;28;20342;-76
2023/06/17 04:11:08;;;;;;;7.13;6.53;;;;;;;13.41;100.00;95856.63;5062472;28;20024;-77
2023/06/17 04:13:34;;;;;;;7.32;6.60;;;;;;;13.42;100.00;95853.84;5055669;28;20484;-76
2023/06/17 04:16:00;;;;;;;7.07;6.43;;;;;;;13.42;100.00;95851.22;5038702;28;20028;-76
2023/06/17 04:18:27;;;;;;;7.75;6.93;;;;;;;13.38;100.00;95852.50;5056055;28;20053;-76
2023/06/17 04:20:56;;;;;;;8.13;5.82;;;;;;;13.36;100.00;95861.56;5056875;28;20036;-76
2023/06/17 04:23:24;;;;;;;7.38;6.88;;;;;;;13.35;100.00;95854.63;5040798;28;20371;-76
2023/06/17 04:25:50;;;;;;;8.07;7.28;;;;;;;13.30;100.00;95863.00;5057101;28;20103;-76
2023/06/17 04:28:19;;;;;;;7.50;6.80;;;;;;;13.35;100.00;95866.00;5027670;28;20049;-77
2023/06/17 04:30:45;;;;;;;7.15;6.65;;;;;;;13.42;100.00;95861.78;5049156;28;20025;-76
2023/06/17 04:33:14;;;;;;;7.20;6.70;;;;;;;13.41;100.00;95870.69;5056283;28;20544;-76
2023/06/17 04:35:42;;;;;;;6.57;6.07;;;;;;;13.38;100.00;95865.72;5056720;28;20025;-77
2023/06/17 04:38:08;;;;;;;7.00;6.50;;;;;;;13.35;100.00;95871.31;5047474;28;20431;-77
2023/06/17 04:40:36;;;;;;;7.40;6.80;;;;;;;13.38;100.00;95868.38;5063471;28;20107;-77
2023/06/17 04:43:02;;;;;;;6.93;5.65;;;;;;;13.34;100.00;95867.00;5045412;28;20055;-77
2023/06/17 04:45:27;;;;;;;6.82;6.18;;;;;;;13.33;100.00;95860.91;5058862;28;20017;-76
2023/06/17 04:47:53;;;;;;;6.82;5.78;;;;;;;13.40;100.00;95858.47;5055210;28;20028;-77
2023/06/17 04:50:18;;;;;;;7.53;6.82;;;;;;;13.51;100.00;95860.06;5056781;28;20043;-76
2023/06/17 04:52:47;;;;;;;6.70;6.03;;;;;;;13.53;100.00;95867.81;5056475;28;20036;-77
2023/06/17 04:55:14;;;;;;;6.82;6.13;;;;;;;13.51;100.00;95864.50;5055664;28;20029;-77
2023/06/17 04:57:42;;;;;;;6.93;6.43;;;;;;;13.50;100.00;95871.63;5044541;28;20499;-77
2023/06/17 05:00:10;;;;;;;7.10;6.22;;;;;;;13.54;100.00;95877.41;5061112;28;20027;-77
2023/06/17 05:02:36;;;;;;;6.80;6.28;;;;;;;13.58;100.00;95862.88;5037698;28;20504;-76
2023/06/17 05:05:02;;;;;;;6.65;6.15;;;;;;;13.62;100.00;95872.19;5055954;28;20025;-77
2023/06/17 05:07:27;;;;;;;6.93;6.38;;;;;;;13.75;100.00;95877.03;5038259;28;20484;-77
2023/06/17 05:09:52;;;;;;;7.10;6.60;;;;;;;13.85;100.00;95883.03;5041818;28;20024;-77
2023/06/17 05:12:18;;;;;;;9.40;6.57;;;;;;;13.95;100.00;95887.41;5034769;28;20096;-77
2023/06/17 05:14:43;;;;;;;7.93;7.13;;;;;;;14.07;100.00;95890.59;5051486;28;20018;-77
2023/06/17 05:17:09;;;;;;;7.00;6.43;;;;;;;14.18;100.00;95887.66;5058093;28;20067;-76
2023/06/17 05:19:34;;;;;;;7.85;7.20;;;;;;;14.29;100.00;95878.59;5050839;28;20064;-77
2023/06/17 05:22:00;;;;;;;7.32;6.72;;;;;;;14.42;100.00;95865.72;5057433;28;20183;-76
2023/06/17 05:24:25;;;;;;;7.78;6.15;;;;;;;14.50;100.00;95866.72;5055465;28;20025;-76
2023/06/17 05:26:50;;;;;;;7.30;6.70;;;;;;;14.57;100.00;95865.91;5058030;28;20028;-76
2023/06/17 05:29:16;;;;;;;7.57;6.97;;;;;;;14.65;100.00;95867.75;5050986;28;20025;-77
2023/06/17 05:31:41;;;;;;;7.43;6.85;;;;;;;14.74;100.00;95876.59;5050623;28;20023;-76
2023/06/17 05:34:09;;;;;;;7.65;6.95;;;;;;;14.90;100.00;95865.97;5060004;28;20020;-76
2023/06/17 05:36:35;;;;;;;7.20;6.53;;;;;;;15.00;100.00;95857.06;5057371;28;20013;-77
2023/06/17 05:39:00;;;;;;;6.10;5.65;;;;;;;15.04;100.00;95851.25;5055314;28;20374;-77
2023/06/17 05:41:26;;;;;;;6.90;6.40;;;;;;;15.18;100.00;95848.91;5057677;28;20063;-77
2023/06/17 05:43:51;;;;;;;6.35;5.70;;;;;;;15.39;100.00;95837.81;5055554;28;20093;-77
2023/06/17 05:46:17;;;;;;;7.50;6.10;;;;;;;15.46;100.00;95832.63;5050263;28;20041;-76
2023/06/17 05:48:42;;;;;;;6.55;6.13;;;;;;;15.54;100.00;95834.44;5029904;28;20068;-76
2023/06/17 05:51:08;;;;;;;7.25;6.63;;;;;;;15.63;100.00;95830.78;5063311;28;20032;-76
2023/06/17 05:53:33;;;;;;;7.65;7.15;;;;;;;15.74;100.00;95825.09;5019326;28;20037;-76
2023/06/17 05:55:58;;;;;;;9.00;8.20;;;;;;;15.85;100.00;95831.03;5055379;28;20040;-76
2023/06/17 05:58:24;;;;;;;6.97;6.47;;;;;;;15.90;100.00;95812.81;5038369;28;20144;-77
2023/06/17 06:00:49;;;;;;;5.97;5.47;;;;;;;15.97;100.00;95811.09;5048941;28;20064;-77
2023/06/17 06:03:15;;;;;;;6.18;5.68;;;;;;;16.10;100.00;95807.06;5057402;28;20028;-76
2023/06/17 06:05:40;;;;;;;6.45;5.85;;;;;;;16.18;100.00;95812.34;5059189;28;20036;-76
2023/06/17 06:08:06;;;;;;;6.93;6.32;;;;;;;16.24;100.00;95801.00;5056744;28;20017;-77
2023/06/17 06:10:32;;;;;;;6.95;5.82;;;;;;;16.29;100.00;95796.00;5044533;28;20033;-76
2023/06/17 06:12:58;;;;;;;6.63;5.65;;;;;;;16.37;100.00;95805.78;5054400;28;20053;-76
2023/06/17 06:15:25;;;;;;;6.43;5.85;;;;;;;16.51;100.00;95808.66;5054675;28;20024;-76
2023/06/17 06:17:51;;;;;;;6.55;6.05;;;;;;;16.63;100.00;95806.41;5054354;28;20528;-76
2023/06/17 06:20:17;;;;;;;7.25;6.55;;;;;;;16.79;100.00;95816.94;5056170;28;20087;-76
2023/06/17 06:22:42;;;;;;;5.80;5.40;;;;;;;16.86;100.00;95817.06;5042828;28;20021;-77
2023/06/17 06:25:08;;;;;;;7.07;6.38;;;;;;;16.87;100.00;95819.50;5041343;28;20044;-77
2023/06/17 06:27:33;;;;;;;8.05;6.22;;;;;;;16.90;100.00;95816.50;5059236;28;20025;-77
2023/06/17 06:29:59;;;;;;;8.15;6.25;;;;;;;17.00;100.00;95818.13;5037484;28;20437;-77
2023/06/17 06:32:24;;;;;;;7.05;6.53;;;;;;;17.14;100.00;95814.69;5024402;28;20397;-78
2023/06/17 06:34:50;;;;;;;13.82;6.47;;;;;;;17.42;100.00;95805.25;5055428;28;20484;-77
2023/06/17 06:37:15;;;;;;;6.93;6.32;;;;;;;17.61;100.00;95810.06;5043310;28;20017;-78
2023/06/17 06:39:42;;;;;;;6.57;5.97;;;;;;;17.95;100.00;95810.50;5053747;28;20102;-78
2023/06/17 06:42:08;;;;;;;6.93;6.10;;;;;;;18.18;100.00;95799.75;5047131;28;20032;-77
2023/06/17 06:44:34;;;;;;;6.47;5.97;;;;;;;18.39;100.00;95805.28;5051814;28;20039;-78
2023/06/17 06:46:59;;;;;;;6.43;5.82;;;;;;;18.67;100.00;95802.72;5055942;28;20025;-76
2023/06/17 06:49:25;;;;;;;6.68;6.07;;;;;;;18.95;100.00;95825.16;5053277;28;20025;-75
2023/06/17 06:51:50;;;;;;;6.10;5.63;;;;;;;19.08;100.00;95809.25;5053954;28;20237;-76
2023/06/17 06:54:15;;;;;;;6.05;5.55;;;;;;;19.32;100.00;95812.53;5036501;28;20550;-74
2023/06/17 06:56:41;;;;;;;6.50;5.80;;;;;;;19.56;100.00;95795.25;5053447;28;20404;-75
2023/06/17 06:59:06;;;;;;;7.25;6.10;;;;;;;19.86;100.00;95796.84;5033542;28;20108;-75
2023/06/17 07:01:32;;;;;;;6.18;5.57;;;;;;;20.13;100.00;95788.97;5030518;28;20034;-77
2023/06/17 07:03:57;;;;;;;5.95;5.55;;;;;;;20.33;100.00;95756.94;5057458;28;20108;-77
2023/06/17 07:06:23;;;;;;;6.25;5.75;;;;;;;20.66;100.00;95691.19;5056428;28;20029;-78
2023/06/17 07:08:48;;;;;;;6.75;5.78;;;;;;;20.67;100.00;95680.28;5057386;28;20037;-78
2023/06/17 07:11:14;;;;;;;6.57;5.20;;;;;;;20.61;100.00;95641.81;5052944;28;20036;-78
2023/06/17 07:13:39;;;;;;;5.90;5.30;;;;;;;20.56;100.00;95606.84;5057734;28;20029;-78
2023/06/17 07:16:04;;;;;;;5.93;5.47;;;;;;;20.60;100.00;95594.69;5035819;28;20499;-78
2023/06/17 07:18:30;;;;;;;5.20;4.80;;;;;;;20.86;100.00;95579.66;5051577;28;20082;-78
2023/06/17 07:20:56;;;;;;;5.65;5.25;;;;;;;20.98;100.00;95582.50;5052658;28;20034;-78
2023/06/17 07:23:22;;;;;;;7.53;5.38;;;;;;;21.26;100.00;95586.75;5057866;28;20496;-78
2023/06/17 07:25:48;;;;;;;5.25;4.75;;;;;;;21.28;100.00;95590.03;5044826;28;20029;-78
2023/06/17 07:28:13;;;;;;;5.65;5.25;;;;;;;21.48;100.00;95586.47;5074450;28;20033;-79
2023/06/17 07:30:40;;;;;;;5.95;4.43;;;;;;;21.43;100.00;95610.34;5059857;28;20032;-77
2023/06/17 07:33:05;;;;;;;5.50;5.10;;;;;;;21.60;100.00;95610.72;5055444;28;20056;-79
2023/06/17 07:35:31;;;;;;;5.03;4.60;;;;;;;21.74;100.00;95624.88;5049049;28;20112;-79
2023/06/17 07:37:57;;;;;;;5.10;4.70;;;;;;;21.78;100.00;95634.13;5059857;28;20053;-78
2023/06/17 07:40:22;;;;;;;5.30;4.88;;;;;;;22.04;100.00;95635.84;5028579;28;20029;-77
2023/06/17 07:42:48;;;;;;;5.75;5.00;;;;;;;21.95;100.00;95671.97;5051147;28;20029;-78
2023/06/17 07:45:13;;;;;;;4.85;4.45;;;;;;;22.11;100.00;95667.97;5063593;28;20499;-77
2023/06/17 07:47:39;;;;;;;5.20;4.80;;;;;;;22.32;100.00;95672.16;5046055;28;20472;-78
2023/06/17 07:50:05;;;;;;;5.65;4.85;;;;;;;22.35;100.00;95711.16;5043287;28;20082;-77
2023/06/17 07:52:32;;;;;;;5.13;4.70;;;;;;;22.44;100.00;95728.59;5070334;28;20031;-77
2023/06/17 07:54:58;;;;;;;6.10;5.05;;;;;;;22.48;100.00;95730.88;5056764;28;20028;-76
2023/06/17 07:57:23;;;;;;;5.20;4.72;;;;;;;22.47;100.00;95735.44;5053046;28;20045;-74
2023/06/17 07:59:49;;;;;;;5.03;4.72;;;;;;;22.78;100.00;95728.41;5044809;28;20033;-76
2023/06/17 08:02:14;;;;;;;5.45;5.07;;;;;;;22.94;100.00;95726.22;5063076;28;20027;-74
2023/06/17 08:04:40;;;;;;;7.15;4.72;;;;;;;23.03;100.00;95728.41;5055207;28;20441;-73
2023/06/17 08:07:05;;;;;;;4.75;4.45;;;;;;;22.91;100.00;95726.66;5041267;28;20029;-74
2023/06/17 08:09:31;;;;;;;8.55;4.65;;;;;;;23.01;100.00;95724.28;5055464;28;20041;-73
2023/06/17 08:11:57;;;;;;;5.38;4.97;;;;;;;23.29;100.00;95723.03;5059355;28;20018;-71
2023/06/17 08:14:23;;;;;;;5.70;4.80;;;;;;;23.27;100.00;95733.16;5069941;28;20040;-73
2023/06/17 08:16:48;;;;;;;6.70;4.60;;;;;;;23.20;100.00;95730.50;5065921;28;20021;-72
2023/06/17 08:19:13;;;;;;;4.55;4.20;;;;;;;23.27;100.00;95725.13;5066821;28;20044;-76
2023/06/17 08:21:41;;;;;;;4.35;4.05;;;;;;;23.32;100.00;95730.63;5047490;28;20032;-75
2023/06/17 08:24:17;;;;;;;5.15;4.75;;;;;;;23.15;100.00;95727.69;5066261;28;20043;-74
2023/06/17 08:26:44;;;;;;;5.43;5.13;;;;;;;23.01;100.00;95740.41;5045515;28;20025;-73
2023/06/17 08:29:10;;;;;;;6.68;5.18;;;;;;;22.80;100.00;95731.69;5052030;28;20036;-73
2023/06/17 08:31:36;;;;;;;5.78;5.28;;;;;;;22.89;100.00;95735.75;5055643;28;20553;-73
2023/06/17 08:34:01;;;;;;;6.35;5.75;;;;;;;23.08;100.00;95727.72;5050838;28;21397;-73
2023/06/17 08:36:27;;;;;;;5.50;5.10;;;;;;;23.20;100.00;95730.50;5074918;28;20103;-73
2023/06/17 08:38:52;;;;;;;7.03;5.50;;;;;;;23.20;100.00;95717.09;5057915;28;20108;-73
2023/06/17 08:41:17;;;;;;;6.50;5.10;;;;;;;23.34;100.00;95712.47;5053003;28;20032;-73
2023/06/17 08:43:46;;;;;;;8.18;6.45;;;;;;;23.59;100.00;95701.63;5056348;28;20028;-71
2023/06/17 08:46:14;;;;;;;6.05;5.45;;;;;;;23.59;100.00;95700.84;5065136;28;20025;-75
2023/06/17 08:48:41;;;;;;;6.05;5.55;;;;;;;23.73;100.00;95691.53;5045339;28;20024;-72
2023/06/17 08:51:07;;;;;;;7.72;5.43;;;;;;;23.93;100.00;95692.38;5047200;28;20049;-72
2023/06/17 08:53:34;;;;;;;9.00;5.07;;;;;;;24.25;100.00;95701.06;5056427;28;20052;-73
2023/06/17 08:56:00;;;;;;;5.93;5.43;;;;;;;23.90;100.00;95696.31;5051956;28;20021;-73
2023/06/17 08:58:25;;;;;;;7.38;4.88;;;;;;;24.43;100.00;95694.00;5059085;28;20031;-72
2023/06/17 09:00:51;;;;;;;7.38;5.32;;;;;;;24.49;100.00;95698.44;5025727;28;20017;-73
2023/06/17 09:03:19;;;;;;;5.35;4.93;;;;;;;24.74;100.00;95694.75;5056286;28;20013;-73
2023/06/17 09:05:44;;;;;;;8.70;5.30;;;;;;;24.93;100.00;95692.78;5039962;28;20040;-73
2023/06/17 09:08:10;;;;;;;6.00;5.50;;;;;;;25.08;100.00;95705.78;5062481;28;20025;-73
2023/06/17 09:10:45;;;;;;;7.22;5.75;;;;;;;25.22;100.00;95722.56;5037437;28;20024;-72
2023/06/17 09:13:10;;;;;;;5.28;4.88;;;;;;;25.34;100.00;95745.97;5063891;28;20036;-72
2023/06/17 09:15:42;;;;;;;6.50;5.28;;;;;;;25.26;100.00;95741.75;5042999;28;20024;-73
2023/06/17 09:18:08;;;;;;;5.97;5.10;;;;;;;25.14;100.00;95739.88;5038523;28;20234;-72
2023/06/17 09:20:33;;;;;;;5.65;5.00;;;;;;;25.12;100.00;95752.78;5037925;28;20515;-72
2023/06/17 09:22:59;;;;;;;5.97;4.57;;;;;;;25.29;100.00;95750.19;5051699;28;20033;-72
2023/06/17 09:25:25;;;;;;;5.07;4.70;;;;;;;25.45;100.00;95750.56;5056264;28;20355;-73
2023/06/17 09:27:52;;;;;;;6.28;5.50;;;;;;;25.76;100.00;95755.84;5053755;28;20021;-72
2023/06/17 09:30:20;;;;;;;5.28;4.80;;;;;;;25.87;100.00;95745.03;5054584;28;20017;-75
2023/06/17 09:32:49;;;;;;;5.35;4.50;;;;;;;26.12;100.00;95743.06;5054619;28;20067;-77
2023/06/17 09:35:15;;;;;;;6.70;4.75;;;;;;;26.24;100.00;95751.97;5055537;28;20031;-76
2023/06/17 09:37:51;;;;;;;5.22;4.82;;;;;;;26.45;100.00;95738.88;5048012;28;20017;-75
2023/06/17 09:40:17;;;;;;;5.43;4.05;;;;;;;26.54;100.00;95740.09;5048834;28;20035;-76
2023/06/17 09:42:44;;;;;;;5.22;4.82;;;;;;;26.60;100.00;95741.81;5048068;28;20444;-75
2023/06/17 09:45:12;;;;;;;4.95;4.47;;;;;;;26.74;100.00;95739.63;5049782;28;20029;-76
2023/06/17 09:47:38;;;;;;;5.47;4.43;;;;;;;26.64;100.00;95735.94;5028080;28;20025;-74
2023/06/17 09:50:08;;;;;;;5.05;4.65;;;;;;;26.62;100.00;95732.66;5049349;28;20036;-73
2023/06/17 09:52:35;;;;;;;5.43;4.30;;;;;;;26.96;100.00;95730.03;5025580;28;20094;-73
2023/06/17 09:55:02;;;;;;;5.00;4.55;;;;;;;26.64;100.00;95725.97;5043998;28;20028;-73
2023/06/17 09:57:31;;;;;;;4.93;4.53;;;;;;;26.42;100.00;95717.78;5055942;28;20066;-72
2023/06/17 09:59:59;;;;;;;4.63;4.22;;;;;;;27.20;100.00;95724.47;5060300;28;20051;-72
2023/06/17 10:02:29;;;;;;;5.00;4.55;;;;;;;27.30;100.00;95719.19;5062753;28;20055;-73
2023/06/17 10:04:54;;;;;;;6.47;4.72;;;;;;;27.60;100.00;95718.03;5036756;28;20115;-74
2023/06/17 10:07:25;;;;;;;6.32;5.72;;;;;;;28.05;100.00;95710.72;5064790;28;20088;-75
2023/06/17 10:09:51;;;;;;;5.50;4.97;;;;;;;28.05;100.00;95708.03;5061252;28;20067;-75
2023/06/17 10:12:18;;;;;;;5.45;4.38;;;;;;;28.26;100.00;95716.41;5055962;28;20029;-74
2023/06/17 10:14:46;;;;;;;4.55;3.95;;;;;;;28.14;100.00;95717.34;5060418;28;20029;-75
2023/06/17 10:17:12;;;;;;;3.78;3.55;;;;;;;28.31;100.00;95705.66;5050667;28;20029;-73
2023/06/17 10:19:41;;;;;;;4.68;4.28;;;;;;;28.68;100.00;95704.91;5051736;28;20084;-74
2023/06/17 10:22:11;;;;;;;4.70;4.20;;;;;;;28.51;100.00;95704.19;5042857;28;20473;-71
2023/06/17 10:24:37;;;;;;;4.80;4.40;;;;;;;28.30;100.00;95709.44;5050834;28;20037;-70
2023/06/17 10:27:05;;;;;;;4.70;4.10;;;;;;;28.09;100.00;95705.63;5044564;28;20028;-72
2023/06/17 10:29:32;;;;;;;4.70;4.28;;;;;;;28.43;100.00;95700.09;5042007;28;20028;-75
2023/06/17 10:32:19;;;;;;;4.22;3.90;;;;;;;29.00;100.00;95700.59;5047659;28;20102;-75
2023/06/17 10:35:06;;;;;;;4.63;4.30;;;;;;;28.73;100.00;95694.09;5042288;28;20025;-75
2023/06/17 10:37:37;;;;;;;4.43;4.13;;;;;;;28.47;100.00;95694.94;5044123;28;20025;-74
2023/06/17 10:40:30;;;;;;;15.65;14.10;;;;;;;28.82;100.00;95693.69;5054407;28;20485;-72
2023/06/17 10:43:01;;;;;;;6.85;5.88;;;;;;;29.37;100.00;95697.03;5050620;28;20493;-73
2023/06/17 10:45:54;;;;;;;4.65;4.20;;;;;;;29.00;100.00;95689.75;5051387;28;20068;-74
2023/06/17 10:48:33;;;;;;;4.07;3.78;;;;;;;28.95;100.00;95690.50;5052190;28;20032;-72
2023/06/17 10:51:09;;;;;;;4.65;4.25;;;;;;;28.94;100.00;95696.22;5048766;28;20028;-71
2023/06/17 10:53:36;;;;;;;7.50;4.40;;;;;;;29.01;100.00;95689.50;5052935;28;20024;-71
2023/06/17 10:56:04;;;;;;;4.63;4.22;;;;;;;29.00;100.00;95678.91;5053894;28;20021;-71
2023/06/17 10:58:31;;;;;;;5.00;4.60;;;;;;;28.19;100.00;95691.44;5049081;28;20053;-72
2023/06/17 11:00:58;;;;;;;6.72;4.85;;;;;;;28.73;100.00;95687.88;5054106;28;20507;-71
2023/06/17 11:03:24;;;;;;;6.72;4.90;;;;;;;28.60;100.00;95689.94;5045646;28;20017;-72
2023/06/17 11:05:50;;;;;;;8.57;4.95;;;;;;;28.83;100.00;95689.91;5034300;28;20032;-73
2023/06/17 11:08:15;;;;;;;6.05;4.95;;;;;;;28.48;100.00;95689.28;5054199;28;20024;-70
2023/06/17 11:10:41;;;;;;;5.70;4.93;;;;;;;28.50;100.00;95680.91;5040596;28;20029;-74
2023/06/17 11:13:06;;;;;;;5.07;4.68;;;;;;;28.53;100.00;95689.34;5039283;28;20053;-72
2023/06/17 11:15:32;;;;;;;6.03;4.88;;;;;;;28.66;100.00;95682.69;5049193;28;20480;-71
2023/06/17 11:18:03;;;;;;;5.50;5.00;;;;;;;28.48;100.00;95681.16;5051987;28;20378;-70
2023/06/17 11:20:35;;;;;;;6.07;4.72;;;;;;;28.26;100.00;95682.03;5047927;28;20103;-70
2023/06/17 11:23:04;;;;;;;5.40;4.90;;;;;;;28.70;100.00;95677.56;5048458;28;20040;-70